Time;durP1;ratioP1;P1;durP2;ratioP2;P2;SDS_P1;SDS_P2;PMS_P1;PMS_P2;Temp;Humidity;BMP_temperature;BMP_pressure;BME280_temperature;BME280_humidity;BME280_pressure;Samples;Min_cycle;Max_cycle;Signal;HPM_P1;HPM_P2
2021/06/15 00:00:44;;;;;;;6.93;6.18;;;;;;;22.91;56.76;100645.47;5048192;28;20045;-66
2021/06/15 00:03:11;;;;;;;10.07;5.78;;;;;;;22.96;56.96;100643.22;5047866;28;20065;-66
2021/06/15 00:05:38;;;;;;;9.82;6.57;;;;;;;22.90;57.12;100649.09;5045876;28;20041;-66
2021/06/15 00:08:05;;;;;;;8.18;6.95;;;;;;;22.73;57.17;100643.53;5048347;28;20045;-66
2021/06/15 00:10:32;;;;;;;10.40;7.53;;;;;;;22.71;57.43;100653.47;5048193;28;20044;-66
2021/06/15 00:12:59;;;;;;;10.95;7.07;;;;;;;22.74;57.33;100649.69;5049323;28;20071;-65
2021/06/15 00:15:26;;;;;;;7.47;6.35;;;;;;;22.81;57.14;100652.63;5047642;28;20052;-66
2021/06/15 00:17:53;;;;;;;11.90;7.55;;;;;;;22.83;57.06;100643.50;5048196;28;20057;-65
2021/06/15 00:20:21;;;;;;;8.50;6.30;;;;;;;22.78;56.98;100651.06;5062873;28;20041;-69
2021/06/15 00:22:48;;;;;;;8.18;6.00;;;;;;;22.75;57.03;100662.00;5047877;28;20037;-68
2021/06/15 00:25:16;;;;;;;8.73;6.93;;;;;;;22.59;57.74;100661.78;5047681;28;20048;-68
2021/06/15 00:27:44;;;;;;;13.77;6.65;;;;;;;22.58;57.46;100660.91;5046674;28;20036;-68
2021/06/15 00:30:13;;;;;;;10.20;6.47;;;;;;;22.62;57.72;100664.13;5048099;28;20037;-67
2021/06/15 00:32:40;;;;;;;10.30;6.45;;;;;;;22.65;57.51;100661.22;5046356;28;20068;-68
2021/06/15 00:35:07;;;;;;;9.63;8.35;;;;;;;22.49;57.76;100664.47;5047409;28;20053;-69
2021/06/15 00:37:35;;;;;;;11.05;7.07;;;;;;;22.51;57.51;100659.84;5045995;28;20041;-68
2021/06/15 00:40:03;;;;;;;12.98;7.38;;;;;;;22.34;57.92;100658.75;5046289;28;20132;-70
2021/06/15 00:42:29;;;;;;;10.82;7.80;;;;;;;22.29;58.40;100662.81;5046068;28;20071;-69
2021/06/15 00:44:56;;;;;;;10.00;8.18;;;;;;;22.30;57.90;100667.97;5047161;28;20071;-68
2021/06/15 00:47:23;;;;;;;8.00;6.63;;;;;;;22.25;58.28;100659.59;5046972;28;20052;-68
2021/06/15 00:49:55;;;;;;;10.38;7.80;;;;;;;22.31;58.15;100668.81;5062287;28;20400;-68
2021/06/15 00:52:23;;;;;;;15.90;7.72;;;;;;;22.14;58.79;100675.69;5047164;28;20087;-69
2021/06/15 00:54:49;;;;;;;10.80;7.60;;;;;;;22.21;58.30;100672.34;5046812;28;20067;-69
2021/06/15 00:57:19;;;;;;;10.10;8.02;;;;;;;22.25;58.30;100670.22;5045744;28;20519;-69
2021/06/15 00:59:46;;;;;;;14.50;7.10;;;;;;;22.25;58.55;100672.88;5047060;28;20048;-69
2021/06/15 01:02:13;;;;;;;10.95;8.65;;;;;;;22.12;58.78;100677.66;5045577;28;20077;-69
2021/06/15 01:04:41;;;;;;;10.10;8.52;;;;;;;22.03;59.10;100681.94;5044969;28;20045;-69
2021/06/15 01:07:28;;;;;;;14.35;10.38;;;;;;;22.04;59.21;100682.78;5047675;28;20037;-69
2021/06/15 01:10:10;;;;;;;10.95;9.75;;;;;;;22.05;59.11;100689.75;5061226;28;20049;-68
2021/06/15 01:12:57;;;;;;;13.38;10.43;;;;;;;22.10;58.60;100687.53;5048068;28;20119;-69
2021/06/15 01:15:32;;;;;;;13.32;9.88;;;;;;;22.01;59.16;100689.22;5045313;28;20045;-69
2021/06/15 01:18:10;;;;;;;8.15;6.78;;;;;;;22.00;58.90;100689.34;5048403;28;20403;-69
2021/06/15 01:20:41;;;;;;;8.50;6.93;;;;;;;22.13;57.41;100692.59;5046345;28;20396;-69
2021/06/15 01:23:30;;;;;;;8.18;6.20;;;;;;;22.14;57.13;100688.97;5046718;28;20041;-70
2021/06/15 01:26:04;;;;;;;7.63;6.68;;;;;;;22.09;56.95;100693.81;5061732;28;20045;-69
2021/06/15 01:28:39;;;;;;;9.00;7.00;;;;;;;22.08;57.11;100687.66;5045802;28;20550;-69
2021/06/15 01:31:19;;;;;;;8.35;6.38;;;;;;;22.01;57.72;100694.53;5044909;28;20095;-69
2021/06/15 01:33:51;;;;;;;13.27;6.78;;;;;;;21.98;57.76;100694.78;5045363;28;20052;-70
2021/06/15 01:36:24;;;;;;;6.60;6.00;;;;;;;21.99;57.66;100699.13;5061665;28;20049;-69
2021/06/15 01:38:58;;;;;;;7.20;6.10;;;;;;;22.00;57.82;100702.63;5046983;28;20041;-69
2021/06/15 01:41:34;;;;;;;15.13;7.13;;;;;;;22.01;57.98;100696.34;5044932;28;20403;-69
2021/06/15 01:44:05;;;;;;;7.53;6.82;;;;;;;21.94;58.15;100701.34;5062824;28;20052;-69
2021/06/15 01:46:41;;;;;;;14.15;7.47;;;;;;;22.03;57.84;100691.72;5052266;28;20048;-69
2021/06/15 01:49:14;;;;;;;7.90;7.13;;;;;;;22.08;57.69;100700.13;5050465;28;20522;-69
2021/06/15 01:51:45;;;;;;;9.45;6.97;;;;;;;21.96;57.31;100697.59;5050666;28;20107;-69
2021/06/15 01:54:20;;;;;;;13.07;6.93;;;;;;;21.96;56.91;100694.94;5065786;28;20053;-67
2021/06/15 01:56:52;;;;;;;8.95;6.97;;;;;;;21.71;57.69;100698.13;5050169;28;20048;-67
2021/06/15 01:59:24;;;;;;;8.90;7.00;;;;;;;21.74;58.01;100700.53;5050527;28;20065;-67
2021/06/15 02:01:56;;;;;;;13.68;6.75;;;;;;;21.55;57.45;100690.69;5065961;28;20064;-67
2021/06/15 02:04:30;;;;;;;7.63;5.65;;;;;;;21.43;57.15;100695.28;5048327;28;20052;-67
2021/06/15 02:07:00;;;;;;;6.93;6.05;;;;;;;21.47;57.05;100692.38;5050200;28;20040;-67
2021/06/15 02:09:32;;;;;;;9.77;5.97;;;;;;;21.51;56.78;100693.75;5049941;28;20557;-67
2021/06/15 02:12:20;;;;;;;10.32;6.55;;;;;;;21.54;56.88;100693.50;5050002;28;20503;-69
2021/06/15 02:15:13;;;;;;;19.20;8.25;;;;;;;21.36;57.61;100690.63;5049561;28;20056;-68
2021/06/15 02:18:04;;;;;;;10.57;7.25;;;;;;;21.48;57.27;100683.44;5049171;28;20041;-68
2021/06/15 02:20:43;;;;;;;11.63;8.45;;;;;;;21.52;57.22;100688.34;5049920;28;20045;-68
2021/06/15 02:23:13;;;;;;;13.73;8.65;;;;;;;21.41;57.80;100683.97;5064182;28;20033;-68
2021/06/15 02:25:42;;;;;;;15.65;7.68;;;;;;;21.50;57.73;100684.13;5049913;28;20399;-68
2021/06/15 02:28:08;;;;;;;15.02;8.85;;;;;;;21.45;57.94;100681.88;5050238;28;20098;-68
2021/06/15 02:30:35;;;;;;;9.98;7.72;;;;;;;21.50;57.78;100684.13;5050105;28;20037;-68
2021/06/15 02:33:13;;;;;;;10.00;6.78;;;;;;;21.55;57.65;100687.22;5053348;28;20055;-68
2021/06/15 02:35:47;;;;;;;25.95;7.32;;;;;;;21.52;57.56;100688.34;5049437;28;20063;-68
2021/06/15 02:38:35;;;;;;;9.88;7.88;;;;;;;21.48;57.75;100686.09;5047824;28;20045;-68
2021/06/15 02:41:06;;;;;;;17.27;7.88;;;;;;;21.45;58.05;100687.19;5049142;28;20037;-67
2021/06/15 02:43:35;;;;;;;14.10;8.05;;;;;;;21.43;58.25;100697.09;5050003;28;20124;-69
2021/06/15 02:46:05;;;;;;;11.10;8.73;;;;;;;21.36;58.27;100694.16;5048599;28;20041;-69
2021/06/15 02:48:35;;;;;;;9.05;7.03;;;;;;;21.30;58.44;100696.47;5065140;28;20045;-69
2021/06/15 02:51:05;;;;;;;13.52;8.75;;;;;;;21.39;58.12;100696.53;5064543;28;20044;-69
2021/06/15 02:53:42;;;;;;;12.90;7.20;;;;;;;21.49;57.78;100698.38;5049388;28;20037;-69
2021/06/15 02:56:15;;;;;;;13.77;7.57;;;;;;;21.26;58.73;100697.72;5046908;28;20115;-69
2021/06/15 02:58:42;;;;;;;10.77;7.57;;;;;;;21.33;58.68;100696.22;5063925;28;20053;-69
2021/06/15 03:01:09;;;;;;;7.38;6.68;;;;;;;21.38;58.55;100692.19;5049178;28;20051;-69
2021/06/15 03:03:43;;;;;;;7.88;7.07;;;;;;;21.18;59.20;100695.72;5047432;28;20041;-69
2021/06/15 03:06:10;;;;;;;10.65;7.82;;;;;;;21.07;59.59;100695.81;5049303;28;20059;-69
2021/06/15 03:08:40;;;;;;;8.95;7.00;;;;;;;21.08;59.32;100694.84;5049228;28;20043;-67
2021/06/15 03:11:13;;;;;;;8.50;7.15;;;;;;;20.92;59.91;100693.50;5047669;28;20033;-66
2021/06/15 03:13:49;;;;;;;7.95;7.25;;;;;;;20.88;60.21;100700.06;5047815;28;20395;-66
2021/06/15 03:16:21;;;;;;;14.38;9.85;;;;;;;20.97;59.69;100698.44;5049064;28;20052;-66
2021/06/15 03:19:12;;;;;;;14.75;8.68;;;;;;;20.96;59.69;100706.53;5063952;28;20040;-66
2021/06/15 03:21:53;;;;;;;12.90;9.32;;;;;;;20.89;59.71;100707.06;5047243;28;20051;-67
2021/06/15 03:24:23;;;;;;;10.65;9.05;;;;;;;20.87;59.69;100708.13;5050717;28;20053;-66
2021/06/15 03:27:10;;;;;;;14.82;9.32;;;;;;;20.81;59.97;100714.81;5047694;28;20132;-67
2021/06/15 03:29:45;;;;;;;12.75;9.77;;;;;;;20.84;59.70;100714.56;5049185;28;20041;-67
2021/06/15 03:32:15;;;;;;;10.65;9.05;;;;;;;20.91;59.37;100704.25;5047629;28;20064;-66
2021/06/15 03:34:45;;;;;;;10.68;8.18;;;;;;;20.91;59.50;100713.03;5045398;28;20052;-67
2021/06/15 03:37:21;;;;;;;10.10;8.35;;;;;;;20.74;60.11;100712.81;5045980;28;20104;-66
2021/06/15 03:39:52;;;;;;;13.60;8.13;;;;;;;20.72;60.17;100712.97;5047540;28;20068;-67
2021/06/15 03:42:24;;;;;;;9.13;8.02;;;;;;;20.77;59.87;100709.91;5048583;28;20064;-69
2021/06/15 03:45:05;;;;;;;12.10;8.27;;;;;;;20.90;59.58;100716.66;5047686;28;20500;-69
2021/06/15 03:47:34;;;;;;;10.10;7.63;;;;;;;20.84;59.93;100719.84;5049239;28;20037;-70
2021/06/15 03:50:02;;;;;;;9.02;7.15;;;;;;;20.75;60.29;100720.63;5049132;28;20083;-69
2021/06/15 03:52:34;;;;;;;11.48;7.55;;;;;;;20.80;60.07;100722.88;5049641;28;20033;-69
2021/06/15 03:55:04;;;;;;;18.13;9.65;;;;;;;20.89;59.83;100725.59;5048323;28;20045;-70
2021/06/15 03:57:33;;;;;;;10.45;9.52;;;;;;;21.02;59.08;100728.03;5048012;28;20037;-69
2021/06/15 04:00:03;;;;;;;9.90;8.68;;;;;;;20.91;59.26;100726.28;5048370;28;20400;-69
2021/06/15 04:02:41;;;;;;;11.15;9.35;;;;;;;20.82;59.30;100727.06;5047906;28;20408;-67
2021/06/15 04:05:10;;;;;;;10.65;9.00;;;;;;;20.74;59.68;100732.19;5047896;28;20412;-67
2021/06/15 04:07:38;;;;;;;11.07;8.65;;;;;;;20.74;59.67;100734.84;5047148;28;20488;-69
2021/06/15 04:10:07;;;;;;;13.63;9.77;;;;;;;20.75;59.77;100736.53;5046296;28;20048;-68
2021/06/15 04:12:34;;;;;;;9.07;8.27;;;;;;;20.85;59.71;100737.44;5045849;28;20041;-69
2021/06/15 04:15:02;;;;;;;14.23;9.00;;;;;;;20.96;59.54;100738.31;5048012;28;20060;-67
2021/06/15 04:17:35;;;;;;;12.30;9.25;;;;;;;20.96;59.54;100738.31;5047796;28;20044;-70
2021/06/15 04:20:03;;;;;;;11.82;8.68;;;;;;;20.99;59.30;100754.81;5046812;28;20047;-66
2021/06/15 04:22:35;;;;;;;10.30;9.32;;;;;;;20.89;59.94;100753.91;5046548;28;20053;-66
2021/06/15 04:25:05;;;;;;;10.27;9.30;;;;;;;21.02;59.64;100754.53;5046688;28;20044;-66
2021/06/15 04:27:34;;;;;;;16.08;9.90;;;;;;;21.12;58.98;100759.88;5047808;28;20060;-66
2021/06/15 04:30:02;;;;;;;13.63;9.43;;;;;;;21.18;58.82;100756.69;5049037;28;20044;-66
2021/06/15 04:32:41;;;;;;;13.02;8.43;;;;;;;21.10;59.18;100756.53;5053875;28;20037;-67
2021/06/15 04:35:09;;;;;;;10.98;9.05;;;;;;;21.16;59.00;100753.34;5053200;28;20064;-65
2021/06/15 04:37:37;;;;;;;9.80;8.80;;;;;;;21.28;58.84;100760.22;5052995;28;20557;-66
2021/06/15 04:40:13;;;;;;;13.15;8.85;;;;;;;21.27;59.14;100758.56;5053293;28;20443;-65
2021/06/15 04:42:58;;;;;;;11.50;9.30;;;;;;;21.28;59.30;100754.09;5053635;28;20049;-65
2021/06/15 04:45:37;;;;;;;12.50;9.70;;;;;;;21.32;59.12;100753.72;5046416;28;20051;-65
2021/06/15 04:48:09;;;;;;;10.85;8.70;;;;;;;21.34;59.47;100754.44;5049461;28;20045;-63
2021/06/15 04:50:37;;;;;;;13.40;8.93;;;;;;;21.43;59.07;100755.44;5061858;28;20043;-65
2021/06/15 04:53:06;;;;;;;15.20;11.00;;;;;;;21.31;59.77;100757.34;5057177;28;20033;-66
2021/06/15 04:55:36;;;;;;;16.48;10.32;;;;;;;21.34;59.46;100756.25;5052923;28;20048;-66
2021/06/15 04:58:07;;;;;;;15.30;9.18;;;;;;;21.66;58.73;100756.91;5053303;28;20092;-66
2021/06/15 05:00:35;;;;;;;11.18;9.45;;;;;;;21.98;58.33;100759.34;5052578;28;20045;-66
2021/06/15 05:03:04;;;;;;;16.30;10.82;;;;;;;21.82;58.50;100756.38;5055582;28;20068;-65
2021/06/15 05:05:31;;;;;;;11.68;9.23;;;;;;;21.87;58.37;100756.81;5054237;28;20056;-62
2021/06/15 05:08:06;;;;;;;12.32;9.15;;;;;;;22.38;57.46;100761.09;5051824;28;20561;-64
2021/06/15 05:10:37;;;;;;;15.52;10.60;;;;;;;22.26;57.39;100759.53;5054156;28;20071;-70
2021/06/15 05:13:10;;;;;;;18.60;10.48;;;;;;;22.67;56.73;100770.84;5053789;28;20091;-68
2021/06/15 05:15:42;;;;;;;13.30;9.60;;;;;;;22.60;56.84;100765.25;5056180;28;20036;-66
2021/06/15 05:18:11;;;;;;;10.93;9.57;;;;;;;22.83;56.65;100768.44;5052168;28;20041;-67
2021/06/15 05:20:38;;;;;;;11.65;10.38;;;;;;;23.16;55.46;100766.25;5060390;28;20327;-67
2021/06/15 05:23:11;;;;;;;13.68;10.27;;;;;;;23.31;55.96;100764.81;5055636;28;20037;-67
2021/06/15 05:25:38;;;;;;;11.07;9.98;;;;;;;23.73;54.61;100769.69;5057004;28;20099;-67
2021/06/15 05:28:05;;;;;;;13.02;11.10;;;;;;;23.48;54.89;100772.00;5050523;28;20511;-73
2021/06/15 05:30:35;;;;;;;12.35;10.15;;;;;;;23.46;55.02;100771.31;5050316;28;20052;-67
2021/06/15 05:33:02;;;;;;;16.60;12.13;;;;;;;23.55;54.25;100768.78;5051240;28;20037;-69
2021/06/15 05:35:29;;;;;;;13.70;12.40;;;;;;;23.30;54.88;100773.78;5053756;28;20049;-70
2021/06/15 05:37:56;;;;;;;13.05;11.43;;;;;;;23.64;54.42;100775.88;5052609;28;20033;-71
2021/06/15 05:40:24;;;;;;;17.23;11.90;;;;;;;24.17;53.46;100778.63;5050955;28;20045;-71
2021/06/15 05:42:50;;;;;;;16.55;13.02;;;;;;;24.11;52.82;100778.41;5052196;28;20041;-72
2021/06/15 05:45:17;;;;;;;14.23;11.60;;;;;;;24.18;53.28;100782.13;5052433;28;20053;-71
2021/06/15 05:47:45;;;;;;;14.23;11.70;;;;;;;24.53;52.05;100782.16;5052888;28;20063;-71
2021/06/15 05:50:16;;;;;;;16.85;13.77;;;;;;;24.85;51.62;100786.06;5052703;28;20045;-71
2021/06/15 05:52:44;;;;;;;19.45;17.20;;;;;;;25.17;50.47;100790.78;5052305;28;20076;-69
2021/06/15 05:55:13;;;;;;;17.67;15.20;;;;;;;25.17;50.20;100795.31;5052106;28;20052;-71
2021/06/15 05:57:40;;;;;;;19.02;17.13;;;;;;;25.71;49.34;100790.53;5053004;28;20091;-67
2021/06/15 06:00:09;;;;;;;19.67;17.67;;;;;;;25.80;48.70;100795.78;5051934;28;20083;-71
2021/06/15 06:02:39;;;;;;;23.80;20.20;;;;;;;26.06;48.17;100790.34;5052937;28;20048;-71
2021/06/15 06:08:04;;;;;;;17.90;12.52;;;;;;;26.42;47.14;100805.28;5052153;28;20055;-70
2021/06/15 06:08:07;;;;;;;14.30;11.75;;;;;;;26.52;47.43;100800.59;5046568;28;20521;-71
2021/06/15 06:10:36;;;;;;;15.30;12.50;;;;;;;27.02;46.15;100800.41;5045956;28;20069;-71
2021/06/15 06:13:05;;;;;;;13.13;11.50;;;;;;;27.39;45.22;100804.34;5046442;28;20037;-71
2021/06/15 06:15:33;;;;;;;23.50;17.08;;;;;;;27.11;44.90;100802.09;5046777;28;20033;-71
2021/06/15 06:18:08;;;;;;;23.10;17.02;;;;;;;27.56;44.44;100800.59;5046171;28;20451;-71
2021/06/15 06:20:36;;;;;;;21.85;18.42;;;;;;;27.84;43.80;100800.16;5047327;28;20045;-72
2021/06/15 06:23:03;;;;;;;27.83;21.27;;;;;;;28.12;42.74;100801.31;5047171;28;20395;-71
2021/06/15 06:25:31;;;;;;;20.60;17.15;;;;;;;28.42;42.31;100801.50;5047283;28;20095;-71
2021/06/15 06:27:58;;;;;;;27.35;18.90;;;;;;;28.54;42.09;100800.06;5046691;28;20044;-72
2021/06/15 06:30:25;;;;;;;26.30;18.58;;;;;;;28.53;42.26;100798.38;5048838;28;20159;-72
2021/06/15 06:32:52;;;;;;;27.27;17.20;;;;;;;28.71;42.53;100800.78;5050180;28;20041;-71
2021/06/15 06:35:19;;;;;;;24.13;18.27;;;;;;;29.32;41.32;100795.31;5050062;28;20045;-72
2021/06/15 06:37:46;;;;;;;20.50;18.25;;;;;;;28.91;41.59;100801.91;5049582;28;20499;-72
2021/06/15 06:40:14;;;;;;;22.65;18.60;;;;;;;28.79;42.20;100808.72;5049625;28;20045;-72
2021/06/15 06:42:41;;;;;;;19.05;16.38;;;;;;;29.69;40.30;100805.13;5049949;28;20132;-72
2021/06/15 06:45:08;;;;;;;23.83;17.48;;;;;;;29.81;40.02;100800.91;5049624;28;20037;-72
2021/06/15 06:47:35;;;;;;;25.88;20.55;;;;;;;29.27;40.34;100805.75;5050042;28;20103;-72
2021/06/15 06:50:04;;;;;;;20.48;16.30;;;;;;;29.85;39.38;100798.69;5049191;28;20083;-72
2021/06/15 06:52:31;;;;;;;26.70;16.05;;;;;;;30.21;37.90;100799.53;5049275;28;20404;-71
2021/06/15 06:54:58;;;;;;;21.10;13.90;;;;;;;30.65;38.16;100798.47;5048976;28;20037;-72
2021/06/15 06:57:25;;;;;;;17.88;16.00;;;;;;;30.54;37.63;100809.75;5047833;28;20549;-72
2021/06/15 06:59:51;;;;;;;23.95;14.55;;;;;;;30.79;37.64;100804.84;5049462;28;20033;-72
2021/06/15 07:02:18;;;;;;;18.67;11.68;;;;;;;31.06;36.57;100803.16;5049713;28;20055;-73
2021/06/15 07:04:45;;;;;;;23.63;11.38;;;;;;;30.13;36.72;100799.66;5048966;28;20049;-72
2021/06/15 07:07:12;;;;;;;19.75;12.10;;;;;;;30.78;35.73;100809.34;5049717;28;20044;-70
2021/06/15 07:09:38;;;;;;;20.88;8.38;;;;;;;31.10;35.56;100804.41;5054634;28;20404;-72
2021/06/15 07:12:06;;;;;;;14.13;8.50;;;;;;;30.64;35.19;100799.50;5054403;28;20576;-72
2021/06/15 07:14:33;;;;;;;12.18;7.40;;;;;;;31.02;35.17;100801.88;5054911;28;20044;-72
2021/06/15 07:16:59;;;;;;;13.15;7.43;;;;;;;31.64;33.65;100798.31;5054114;28;20037;-72
2021/06/15 07:19:26;;;;;;;11.77;8.63;;;;;;;32.07;32.31;100795.38;5054611;28;20045;-70
2021/06/15 07:21:53;;;;;;;10.88;7.28;;;;;;;32.64;31.38;100796.69;5056709;28;20047;-72
2021/06/15 07:24:25;;;;;;;9.68;6.68;;;;;;;32.25;32.04;100798.28;5054551;28;20048;-71
2021/06/15 07:26:52;;;;;;;11.98;7.88;;;;;;;32.32;31.95;100799.13;5054202;28;20484;-71
2021/06/15 07:29:19;;;;;;;10.90;6.63;;;;;;;32.25;32.37;100802.88;5054172;28;20443;-74
2021/06/15 07:31:45;;;;;;;7.70;6.50;;;;;;;32.67;31.48;100801.69;5052505;28;20033;-73
2021/06/15 07:34:13;;;;;;;10.48;6.38;;;;;;;32.25;30.97;100798.28;5054100;28;20052;-73
2021/06/15 07:36:39;;;;;;;10.27;5.75;;;;;;;32.81;30.52;100792.53;5053844;28;20037;-69
2021/06/15 07:39:06;;;;;;;6.57;5.63;;;;;;;33.26;29.44;100787.28;5053795;28;20087;-76
2021/06/15 07:41:33;;;;;;;9.93;5.70;;;;;;;32.52;30.39;100787.56;5052927;28;20041;-71
2021/06/15 07:44:00;;;;;;;6.55;5.07;;;;;;;32.18;30.49;100786.69;5053717;28;20045;-70
2021/06/15 07:46:26;;;;;;;11.30;5.63;;;;;;;33.05;28.67;100787.53;5053450;28;20439;-75
2021/06/15 07:48:53;;;;;;;8.13;5.45;;;;;;;33.27;28.88;100791.63;5053659;28;20045;-68
2021/06/15 07:51:20;;;;;;;6.85;4.43;;;;;;;32.95;29.08;100789.84;5053175;28;20087;-69
2021/06/15 07:53:47;;;;;;;7.50;5.10;;;;;;;33.23;29.58;100793.09;5052843;28;20443;-63
2021/06/15 07:56:14;;;;;;;7.07;4.85;;;;;;;33.22;29.50;100788.72;5053361;28;20036;-72
2021/06/15 07:58:41;;;;;;;8.35;4.13;;;;;;;33.18;28.42;100801.00;5053130;28;20045;-74
2021/06/15 08:01:08;;;;;;;8.15;4.13;;;;;;;34.12;27.40;100795.03;5052568;28;20443;-67
2021/06/15 08:03:35;;;;;;;14.63;4.22;;;;;;;34.08;26.86;100790.25;5053133;28;20048;-68
2021/06/15 08:06:02;;;;;;;9.70;3.85;;;;;;;33.61;27.70;100792.34;5052540;28;20460;-68
2021/06/15 08:08:29;;;;;;;7.53;4.25;;;;;;;33.44;27.04;100796.59;5053100;28;20086;-64
2021/06/15 08:10:56;;;;;;;8.02;3.63;;;;;;;33.80;26.42;100794.16;5051830;28;20049;-69
2021/06/15 08:13:23;;;;;;;6.22;4.20;;;;;;;33.68;27.26;100787.78;5053327;28;20060;-69
2021/06/15 08:15:51;;;;;;;9.60;3.80;;;;;;;33.32;26.03;100799.09;5052421;28;20033;-68
2021/06/15 08:18:19;;;;;;;6.78;3.53;;;;;;;33.76;26.32;100795.63;5052819;28;20083;-70
2021/06/15 08:20:50;;;;;;;7.55;3.58;;;;;;;33.49;25.04;100789.50;5052631;28;20480;-67
2021/06/15 08:23:17;;;;;;;3.92;3.25;;;;;;;33.23;25.63;100790.38;5052356;28;20411;-65
2021/06/15 08:25:44;;;;;;;6.60;2.97;;;;;;;33.29;25.60;100794.09;5052927;28;20045;-67
2021/06/15 08:28:11;;;;;;;5.30;2.92;;;;;;;33.19;26.10;100786.47;5052847;28;20075;-68
2021/06/15 08:30:39;;;;;;;8.48;3.63;;;;;;;32.91;25.69;100791.28;5052603;28;20041;-68
2021/06/15 08:33:09;;;;;;;6.97;3.30;;;;;;;33.04;25.75;100785.88;5053179;28;20045;-69
2021/06/15 08:35:36;;;;;;;8.40;2.83;;;;;;;32.52;25.88;100791.09;5053029;28;20049;-68
2021/06/15 08:38:03;;;;;;;4.88;2.35;;;;;;;32.56;26.16;100792.34;5050630;28;20045;-68
2021/06/15 08:40:30;;;;;;;5.88;2.60;;;;;;;32.50;25.41;100785.06;5052738;28;20037;-68
2021/06/15 08:42:57;;;;;;;4.43;2.97;;;;;;;32.40;26.31;100790.06;5052486;28;20067;-68
2021/06/15 08:45:24;;;;;;;4.05;2.95;;;;;;;32.37;26.05;100795.03;5052154;28;20048;-68
2021/06/15 08:47:53;;;;;;;6.82;2.72;;;;;;;32.27;26.28;100792.69;5052096;28;20510;-67
2021/06/15 08:50:23;;;;;;;6.82;3.72;;;;;;;32.30;26.32;100787.72;5052254;28;20033;-68
2021/06/15 08:52:51;;;;;;;5.15;2.92;;;;;;;32.22;26.99;100798.69;5051245;28;20491;-68
2021/06/15 08:55:20;;;;;;;7.55;2.55;;;;;;;32.08;26.87;100791.63;5050423;28;20071;-68
2021/06/15 08:58:01;;;;;;;5.60;2.70;;;;;;;31.58;27.93;100792.88;5052610;28;20044;-68
2021/06/15 09:00:27;;;;;;;5.57;2.28;;;;;;;31.34;28.38;100788.84;5054182;28;20463;-68
2021/06/15 09:02:54;;;;;;;5.78;3.15;;;;;;;31.44;28.09;100789.31;5052451;28;20526;-67
2021/06/15 09:05:21;;;;;;;5.65;2.75;;;;;;;31.11;28.09;100791.78;5051664;28;20044;-68
2021/06/15 09:07:56;;;;;;;8.50;2.90;;;;;;;31.16;28.05;100792.88;5054102;28;20044;-67
2021/06/15 09:10:28;;;;;;;4.88;2.50;;;;;;;30.91;27.76;100786.28;5050446;28;20488;-68
2021/06/15 09:12:55;;;;;;;6.05;2.63;;;;;;;30.76;27.18;100786.38;5051979;28;20045;-68
2021/06/15 09:15:23;;;;;;;5.30;3.22;;;;;;;30.39;27.97;100784.78;5051637;28;20048;-68
2021/06/15 09:17:50;;;;;;;4.18;2.83;;;;;;;30.25;28.26;100779.28;5051421;28;20049;-67
2021/06/15 09:20:24;;;;;;;14.25;3.85;;;;;;;30.08;28.77;100782.38;5049481;28;20048;-68
2021/06/15 09:23:00;;;;;;;5.50;2.97;;;;;;;29.93;28.93;100779.75;5051867;28;20047;-69
2021/06/15 09:25:27;;;;;;;4.53;2.67;;;;;;;29.95;29.22;100783.09;5051182;28;20044;-70
2021/06/15 09:27:54;;;;;;;9.18;2.90;;;;;;;29.93;29.72;100785.13;5051173;28;20091;-68
2021/06/15 09:30:26;;;;;;;6.65;3.38;;;;;;;30.02;29.83;100783.97;5050762;28;20087;-69
2021/06/15 09:32:54;;;;;;;6.45;2.72;;;;;;;30.19;30.18;100782.75;5051579;28;20048;-68
2021/06/15 09:35:32;;;;;;;3.58;2.70;;;;;;;30.22;29.60;100777.00;5051110;28;20045;-68
2021/06/15 09:38:00;;;;;;;3.97;2.58;;;;;;;29.99;28.71;100784.38;5050420;28;20480;-68
2021/06/15 09:40:32;;;;;;;5.53;3.10;;;;;;;29.75;29.24;100783.69;5050760;28;20040;-68
2021/06/15 09:43:04;;;;;;;3.50;2.70;;;;;;;29.72;29.42;100778.72;5050460;28;20118;-69
2021/06/15 09:45:43;;;;;;;5.30;3.15;;;;;;;29.59;29.52;100783.91;5048560;28;20033;-69
2021/06/15 09:48:34;;;;;;;5.38;3.88;;;;;;;29.42;28.88;100777.88;5052941;28;20400;-70
2021/06/15 09:51:04;;;;;;;7.35;4.38;;;;;;;29.55;29.98;100781.78;5051699;28;20462;-69
2021/06/15 09:53:37;;;;;;;8.38;3.40;;;;;;;29.48;29.70;100789.72;5052084;28;20422;-69
2021/06/15 09:56:06;;;;;;;9.30;2.63;;;;;;;29.37;29.40;100779.47;5052381;28;20392;-68
2021/06/15 09:58:55;;;;;;;6.15;2.58;;;;;;;29.51;29.58;100781.31;5052240;28;20040;-70
2021/06/15 10:01:40;;;;;;;4.50;2.78;;;;;;;29.46;28.79;100783.72;5049596;28;20130;-70
2021/06/15 10:04:24;;;;;;;6.53;3.28;;;;;;;29.35;29.59;100781.47;5054554;28;20067;-70
2021/06/15 10:06:56;;;;;;;3.75;2.83;;;;;;;29.34;29.16;100779.81;5056291;28;20041;-70
2021/06/15 10:09:24;;;;;;;9.13;3.28;;;;;;;29.15;28.97;100779.38;5056039;28;20102;-71
2021/06/15 10:11:53;;;;;;;6.50;3.00;;;;;;;29.03;28.65;100778.19;5056828;28;20052;-68
2021/06/15 10:14:22;;;;;;;6.05;3.25;;;;;;;29.09;29.71;100776.59;5057978;28;20037;-69
2021/06/15 10:16:49;;;;;;;5.63;2.58;;;;;;;29.00;28.84;100777.69;5055534;28;20045;-69
2021/06/15 10:19:16;;;;;;;6.82;3.08;;;;;;;29.00;30.12;100762.44;5055868;28;20041;-70
2021/06/15 10:21:43;;;;;;;6.35;2.95;;;;;;;29.12;29.99;100766.31;5056581;28;20041;-70
2021/06/15 10:24:10;;;;;;;4.47;2.90;;;;;;;28.64;29.84;100765.75;5056140;28;20545;-70
2021/06/15 10:26:53;;;;;;;6.57;3.20;;;;;;;28.93;30.14;100756.13;5052812;28;20068;-70
2021/06/15 10:29:21;;;;;;;5.40;2.60;;;;;;;29.01;31.24;100756.03;5055789;28;20438;-69
2021/06/15 10:31:51;;;;;;;4.22;2.88;;;;;;;29.16;31.58;100754.19;5055217;28;20132;-68
2021/06/15 10:34:54;;;;;;;5.43;2.50;;;;;;;29.30;29.32;100749.03;5051246;28;20049;-67
2021/06/15 10:37:36;;;;;;;10.85;3.08;;;;;;;29.09;29.57;100757.81;5045428;28;20037;-68
2021/06/15 10:40:12;;;;;;;6.80;3.08;;;;;;;28.91;29.19;100745.53;5055629;28;20496;-67
2021/06/15 10:42:59;;;;;;;6.78;2.60;;;;;;;28.92;29.19;100749.91;5054595;28;20055;-68
2021/06/15 10:45:27;;;;;;;6.97;3.30;;;;;;;28.96;29.35;100742.34;5054427;28;20444;-68
2021/06/15 10:48:05;;;;;;;3.88;3.17;;;;;;;29.00;29.48;100734.75;5051415;28;20454;-68
2021/06/15 10:50:36;;;;;;;3.53;3.00;;;;;;;28.92;29.34;100739.19;5052015;28;20519;-67
2021/06/15 10:53:05;;;;;;;7.00;3.30;;;;;;;28.94;29.51;100739.03;5053011;28;20033;-68
2021/06/15 10:55:41;;;;;;;7.55;3.20;;;;;;;28.74;29.68;100735.19;5051855;28;20045;-68
2021/06/15 10:58:08;;;;;;;8.70;2.85;;;;;;;28.94;30.14;100731.81;5056408;28;20103;-67
2021/06/15 11:00:52;;;;;;;3.10;2.67;;;;;;;28.91;28.97;100725.94;5050996;28;20041;-68
2021/06/15 11:03:23;;;;;;;4.10;3.13;;;;;;;28.94;29.17;100730.97;5053321;28;20110;-67
2021/06/15 11:05:56;;;;;;;4.93;2.80;;;;;;;28.96;29.56;100732.44;5055272;28;20041;-67
2021/06/15 11:08:31;;;;;;;4.55;3.10;;;;;;;29.06;29.96;100721.44;5056638;28;20056;-68
2021/06/15 11:11:25;;;;;;;4.30;3.25;;;;;;;29.22;29.95;100715.84;5052106;28;20397;-68
2021/06/15 11:13:53;;;;;;;4.38;2.83;;;;;;;29.17;30.13;100720.97;5053922;28;20040;-67
2021/06/15 11:16:35;;;;;;;3.80;2.95;;;;;;;29.25;30.56;100721.91;5053748;28;20037;-68
2021/06/15 11:19:29;;;;;;;5.10;3.30;;;;;;;29.13;29.64;100716.97;5059024;28;20037;-67
2021/06/15 11:21:55;;;;;;;4.60;3.42;;;;;;;29.01;28.64;100713.09;5047367;28;20033;-68
2021/06/15 11:24:23;;;;;;;6.80;3.17;;;;;;;29.02;29.94;100714.75;5054104;28;20045;-69
2021/06/15 11:26:58;;;;;;;6.03;3.05;;;;;;;29.02;29.89;100714.75;5053676;28;20087;-67
2021/06/15 11:29:31;;;;;;;4.78;3.05;;;;;;;29.04;30.92;100710.06;5056395;28;20049;-70
2021/06/15 11:32:16;;;;;;;5.93;3.90;;;;;;;29.16;30.21;100705.03;5053562;28;20045;-68
2021/06/15 11:34:55;;;;;;;5.82;3.92;;;;;;;29.01;29.50;100705.03;5068416;28;20098;-70
2021/06/15 11:37:37;;;;;;;6.47;2.90;;;;;;;29.08;29.79;100705.13;5051865;28;20041;-68